sensor_id;sensor_type;location;lat;lon;timestamp;pressure;altitude;pressure_sealevel;temperature;humidity
12801;BME280;6464;42.494;27.470;2022-09-06T05:13:51;102120.91;;;17.24;100.00
12801;BME280;6464;42.494;27.470;2022-09-06T05:21:57;101986.72;;;16.49;100.00
12801;BME280;6464;42.494;27.470;2022-09-06T05:27:28;102072.03;;;16.86;100.00
12801;BME280;6464;42.494;27.470;2022-09-06T05:30:01;102073.69;;;16.91;100.00
12801;BME280;6464;42.494;27.470;2022-09-06T05:32:32;102074.44;;;16.98;100.00
12801;BME280;6464;42.494;27.470;2022-09-06T05:35:01;102057.69;;;16.93;100.00
12801;BME280;6464;42.494;27.470;2022-09-06T05:37:41;102171.22;;;17.76;100.00
12801;BME280;6464;42.494;27.470;2022-09-06T05:40:20;102067.97;;;17.08;100.00
12801;BME280;6464;42.494;27.470;2022-09-06T05:42:55;102167.63;;;17.77;100.00
12801;BME280;6464;42.494;27.470;2022-09-06T05:45:31;102097.47;;;17.38;100.00
12801;BME280;6464;42.494;27.470;2022-09-06T05:48:14;102033.81;;;17.24;100.00
12801;BME280;6464;42.494;27.470;2022-09-06T05:51:14;102130.41;;;17.71;100.00
12801;BME280;6464;42.494;27.470;2022-09-06T05:53:43;102138.44;;;17.69;100.00
12801;BME280;6464;42.494;27.470;2022-09-06T05:56:31;102105.22;;;17.47;100.00
12801;BME280;6464;42.494;27.470;2022-09-06T06:08:06;102086.28;;;17.58;100.00
12801;BME280;6464;42.494;27.470;2022-09-06T06:13:24;102107.56;;;17.95;100.00
12801;BME280;6464;42.494;27.470;2022-09-06T06:18:54;102169.91;;;18.58;100.00
12801;BME280;6464;42.494;27.470;2022-09-06T06:21:38;102220.91;;;18.83;100.00
12801;BME280;6464;42.494;27.470;2022-09-06T06:41:17;102249.00;;;20.36;100.00
12801;BME280;6464;42.494;27.470;2022-09-06T06:43:50;102311.09;;;20.75;100.00
12801;BME280;6464;42.494;27.470;2022-09-06T06:46:43;102313.47;;;20.83;100.00
12801;BME280;6464;42.494;27.470;2022-09-06T06:49:49;102276.81;;;20.84;100.00
12801;BME280;6464;42.494;27.470;2022-09-06T07:13:18;102379.19;;;23.00;100.00
12801;BME280;6464;42.494;27.470;2022-09-06T07:18:40;102407.16;;;23.37;100.00
12801;BME280;6464;42.494;27.470;2022-09-06T07:21:09;102401.59;;;23.40;100.00
12801;BME280;6464;42.494;27.470;2022-09-06T07:23:38;102360.06;;;23.26;100.00
12801;BME280;6464;42.494;27.470;2022-09-06T07:26:12;102437.53;;;23.59;100.00
12801;BME280;6464;42.494;27.470;2022-09-06T07:31:56;102430.97;;;23.85;100.00
12801;BME280;6464;42.494;27.470;2022-09-06T07:34:23;102424.09;;;23.78;100.00
12801;BME280;6464;42.494;27.470;2022-09-06T07:36:51;102414.66;;;23.69;100.00
12801;BME280;6464;42.494;27.470;2022-09-06T07:39:19;102395.25;;;23.61;100.00
12801;BME280;6464;42.494;27.470;2022-09-06T07:41:46;102435.75;;;24.16;100.00
12801;BME280;6464;42.494;27.470;2022-09-06T07:44:13;102437.47;;;24.00;100.00
12801;BME280;6464;42.494;27.470;2022-09-06T07:46:41;102418.38;;;24.04;100.00
12801;BME280;6464;42.494;27.470;2022-09-06T07:49:08;102344.38;;;23.74;100.00
12801;BME280;6464;42.494;27.470;2022-09-06T07:51:35;102395.44;;;24.32;100.00
12801;BME280;6464;42.494;27.470;2022-09-06T07:54:02;102433.19;;;24.51;100.00
12801;BME280;6464;42.494;27.470;2022-09-06T07:56:31;102362.00;;;24.36;100.00
12801;BME280;6464;42.494;27.470;2022-09-06T07:58:58;102411.41;;;24.73;100.00
12801;BME280;6464;42.494;27.470;2022-09-06T08:01:27;102421.94;;;24.95;100.00
12801;BME280;6464;42.494;27.470;2022-09-06T08:03:56;102436.09;;;25.17;100.00
12801;BME280;6464;42.494;27.470;2022-09-06T08:06:24;102471.28;;;25.33;100.00
12801;BME280;6464;42.494;27.470;2022-09-06T08:08:51;102457.72;;;25.17;100.00
12801;BME280;6464;42.494;27.470;2022-09-06T08:11:19;102441.81;;;25.28;100.00
12801;BME280;6464;42.494;27.470;2022-09-06T08:13:49;102407.19;;;25.02;100.00
12801;BME280;6464;42.494;27.470;2022-09-06T08:16:17;102427.63;;;25.07;100.00
12801;BME280;6464;42.494;27.470;2022-09-06T08:18:48;102416.25;;;25.01;100.00
12801;BME280;6464;42.494;27.470;2022-09-06T08:21:15;102421.06;;;24.94;100.00
12801;BME280;6464;42.494;27.470;2022-09-06T08:23:45;102437.78;;;25.20;100.00
12801;BME280;6464;42.494;27.470;2022-09-06T08:26:12;102447.78;;;25.35;100.00
12801;BME280;6464;42.494;27.470;2022-09-06T08:28:39;102440.88;;;25.12;100.00
12801;BME280;6464;42.494;27.470;2022-09-06T08:31:09;102392.09;;;24.46;100.00
12801;BME280;6464;42.494;27.470;2022-09-06T08:33:37;102373.19;;;24.46;100.00
12801;BME280;6464;42.494;27.470;2022-09-06T08:36:06;102432.66;;;24.79;100.00
12801;BME280;6464;42.494;27.470;2022-09-06T08:41:51;102424.63;;;24.60;100.00
12801;BME280;6464;42.494;27.470;2022-09-06T08:44:22;102426.00;;;25.03;100.00
12801;BME280;6464;42.494;27.470;2022-09-06T08:46:54;102416.66;;;25.10;100.00
12801;BME280;6464;42.494;27.470;2022-09-06T08:49:24;102433.06;;;25.41;100.00
12801;BME280;6464;42.494;27.470;2022-09-06T08:52:12;102443.72;;;25.77;100.00
12801;BME280;6464;42.494;27.470;2022-09-06T08:54:47;102443.47;;;25.81;100.00
12801;BME280;6464;42.494;27.470;2022-09-06T08:57:30;102387.88;;;25.60;100.00
12801;BME280;6464;42.494;27.470;2022-09-06T09:00:03;102415.84;;;25.59;100.00
12801;BME280;6464;42.494;27.470;2022-09-06T09:02:41;102447.06;;;26.13;100.00
12801;BME280;6464;42.494;27.470;2022-09-06T09:05:16;102432.50;;;26.00;100.00
12801;BME280;6464;42.494;27.470;2022-09-06T09:07:51;102377.03;;;25.77;100.00
12801;BME280;6464;42.494;27.470;2022-09-06T09:10:25;102381.25;;;25.66;100.00
12801;BME280;6464;42.494;27.470;2022-09-06T09:12:53;102415.03;;;25.90;100.00
12801;BME280;6464;42.494;27.470;2022-09-06T09:15:23;102404.06;;;25.77;100.00
12801;BME280;6464;42.494;27.470;2022-09-06T09:17:52;102353.22;;;25.19;100.00
12801;BME280;6464;42.494;27.470;2022-09-06T09:20:20;102401.28;;;25.79;100.00
12801;BME280;6464;42.494;27.470;2022-09-06T09:22:47;102382.00;;;26.17;100.00
12801;BME280;6464;42.494;27.470;2022-09-06T09:25:18;102379.47;;;25.98;100.00
12801;BME280;6464;42.494;27.470;2022-09-06T09:27:46;102394.47;;;26.19;100.00
12801;BME280;6464;42.494;27.470;2022-09-06T09:30:14;102365.41;;;26.23;100.00
12801;BME280;6464;42.494;27.470;2022-09-06T09:32:43;102357.38;;;27.26;100.00
12801;BME280;6464;42.494;27.470;2022-09-06T09:35:24;102472.97;;;30.70;100.00
12801;BME280;6464;42.494;27.470;2022-09-06T09:37:59;102449.19;;;30.73;100.00
12801;BME280;6464;42.494;27.470;2022-09-06T09:40:30;102457.72;;;31.61;100.00
12801;BME280;6464;42.494;27.470;2022-09-06T09:43:18;102454.81;;;30.34;100.00
12801;BME280;6464;42.494;27.470;2022-09-06T09:46:06;102373.72;;;29.15;100.00
12801;BME280;6464;42.494;27.470;2022-09-06T09:48:33;102419.00;;;29.91;100.00
12801;BME280;6464;42.494;27.470;2022-09-06T09:51:17;102458.63;;;29.31;100.00
12801;BME280;6464;42.494;27.470;2022-09-06T09:53:54;102429.41;;;29.60;100.00
12801;BME280;6464;42.494;27.470;2022-09-06T09:56:33;102374.00;;;29.49;100.00
12801;BME280;6464;42.494;27.470;2022-09-06T09:59:06;102389.56;;;29.47;100.00
12801;BME280;6464;42.494;27.470;2022-09-06T10:01:35;102343.59;;;29.56;100.00
12801;BME280;6464;42.494;27.470;2022-09-06T10:04:06;102380.78;;;29.05;100.00
12801;BME280;6464;42.494;27.470;2022-09-06T10:06:34;102376.38;;;28.10;100.00
12801;BME280;6464;42.494;27.470;2022-09-06T10:09:13;102418.59;;;29.33;100.00
12801;BME280;6464;42.494;27.470;2022-09-06T10:11:57;102412.69;;;29.90;100.00
12801;BME280;6464;42.494;27.470;2022-09-06T10:14:27;102420.56;;;29.44;100.00
12801;BME280;6464;42.494;27.470;2022-09-06T10:16:55;102411.22;;;29.35;100.00
12801;BME280;6464;42.494;27.470;2022-09-06T10:19:37;102372.88;;;29.89;100.00
12801;BME280;6464;42.494;27.470;2022-09-06T10:22:21;102405.56;;;29.38;100.00
12801;BME280;6464;42.494;27.470;2022-09-06T10:25:16;102421.09;;;30.24;100.00
12801;BME280;6464;42.494;27.470;2022-09-06T10:28:06;102432.31;;;30.67;100.00
12801;BME280;6464;42.494;27.470;2022-09-06T10:30:42;102429.28;;;30.72;100.00
12801;BME280;6464;42.494;27.470;2022-09-06T10:33:22;102407.78;;;30.80;100.00
12801;BME280;6464;42.494;27.470;2022-09-06T10:35:55;102393.97;;;29.86;100.00
12801;BME280;6464;42.494;27.470;2022-09-06T10:38:34;102375.53;;;29.53;100.00
12801;BME280;6464;42.494;27.470;2022-09-06T10:41:24;102397.53;;;29.99;100.00
12801;BME280;6464;42.494;27.470;2022-09-06T10:44:01;102316.84;;;29.37;100.00
12801;BME280;6464;42.494;27.470;2022-09-06T10:46:34;102382.13;;;30.11;100.00
12801;BME280;6464;42.494;27.470;2022-09-06T10:49:01;102273.13;;;30.01;100.00
12801;BME280;6464;42.494;27.470;2022-09-06T10:51:33;102380.69;;;29.94;100.00
12801;BME280;6464;42.494;27.470;2022-09-06T10:54:06;102301.97;;;28.79;100.00
12801;BME280;6464;42.494;27.470;2022-09-06T10:56:40;102345.97;;;29.61;100.00
12801;BME280;6464;42.494;27.470;2022-09-06T10:59:14;102383.25;;;30.08;100.00
12801;BME280;6464;42.494;27.470;2022-09-06T11:04:40;102375.69;;;30.60;100.00
12801;BME280;6464;42.494;27.470;2022-09-06T11:07:14;102398.97;;;31.45;100.00
12801;BME280;6464;42.494;27.470;2022-09-06T11:09:47;102371.44;;;30.44;100.00
12801;BME280;6464;42.494;27.470;2022-09-06T11:12:21;102315.88;;;29.38;100.00
12801;BME280;6464;42.494;27.470;2022-09-06T11:14:52;102376.72;;;31.16;100.00
12801;BME280;6464;42.494;27.470;2022-09-06T11:17:27;102355.38;;;30.88;100.00
12801;BME280;6464;42.494;27.470;2022-09-06T11:20:01;102362.84;;;30.62;100.00
12801;BME280;6464;42.494;27.470;2022-09-06T11:22:47;102373.63;;;31.21;100.00
12801;BME280;6464;42.494;27.470;2022-09-06T11:28:28;102395.09;;;30.79;100.00
12801;BME280;6464;42.494;27.470;2022-09-06T11:30:57;102283.78;;;29.43;100.00
12801;BME280;6464;42.494;27.470;2022-09-06T11:33:27;102336.59;;;29.52;100.00
12801;BME280;6464;42.494;27.470;2022-09-06T11:36:15;102343.66;;;30.28;100.00
12801;BME280;6464;42.494;27.470;2022-09-06T11:38:53;102338.81;;;30.91;100.00
12801;BME280;6464;42.494;27.470;2022-09-06T11:41:27;102370.75;;;30.54;100.00
12801;BME280;6464;42.494;27.470;2022-09-06T11:43:56;102365.44;;;30.28;100.00
12801;BME280;6464;42.494;27.470;2022-09-06T11:46:57;102381.38;;;31.38;100.00
12801;BME280;6464;42.494;27.470;2022-09-06T11:49:40;102366.78;;;30.46;100.00
12801;BME280;6464;42.494;27.470;2022-09-06T11:55:32;102327.09;;;30.66;100.00
12801;BME280;6464;42.494;27.470;2022-09-06T11:58:03;102352.47;;;30.32;100.00
12801;BME280;6464;42.494;27.470;2022-09-06T12:00:31;102307.75;;;29.13;100.00
12801;BME280;6464;42.494;27.470;2022-09-06T12:02:58;102375.44;;;30.04;100.00
12801;BME280;6464;42.494;27.470;2022-09-06T12:05:28;102365.78;;;30.24;100.00
12801;BME280;6464;42.494;27.470;2022-09-06T12:11:04;102262.94;;;29.92;100.00
12801;BME280;6464;42.494;27.470;2022-09-06T12:13:41;102361.97;;;30.96;100.00
12801;BME280;6464;42.494;27.470;2022-09-06T12:16:14;102364.69;;;31.08;100.00
12801;BME280;6464;42.494;27.470;2022-09-06T12:18:59;102333.75;;;29.54;100.00
12801;BME280;6464;42.494;27.470;2022-09-06T12:21:39;102286.38;;;29.58;100.00
12801;BME280;6464;42.494;27.470;2022-09-06T12:24:08;102340.78;;;30.18;100.00
12801;BME280;6464;42.494;27.470;2022-09-06T12:26:49;102253.25;;;30.12;100.00
12801;BME280;6464;42.494;27.470;2022-09-06T12:29:22;102339.38;;;30.72;100.00
12801;BME280;6464;42.494;27.470;2022-09-06T12:31:52;102346.22;;;30.18;100.00
12801;BME280;6464;42.494;27.470;2022-09-06T12:34:21;102339.38;;;30.72;100.00
12801;BME280;6464;42.494;27.470;2022-09-06T12:36:55;102266.28;;;29.35;100.00
12801;BME280;6464;42.494;27.470;2022-09-06T12:39:23;102291.78;;;30.54;100.00
12801;BME280;6464;42.494;27.470;2022-09-06T12:41:51;102306.19;;;30.08;100.00
12801;BME280;6464;42.494;27.470;2022-09-06T12:44:35;102348.03;;;30.66;100.00
12801;BME280;6464;42.494;27.470;2022-09-06T12:47:09;102339.41;;;30.83;100.00
12801;BME280;6464;42.494;27.470;2022-09-06T12:49:37;102266.22;;;28.85;100.00
12801;BME280;6464;42.494;27.470;2022-09-06T12:52:09;102313.66;;;29.07;100.00
12801;BME280;6464;42.494;27.470;2022-09-06T12:54:45;102340.69;;;30.31;100.00
12801;BME280;6464;42.494;27.470;2022-09-06T12:57:16;102272.28;;;30.36;100.00
12801;BME280;6464;42.494;27.470;2022-09-06T12:59:50;102291.88;;;30.87;100.00
12801;BME280;6464;42.494;27.470;2022-09-06T13:02:23;102288.06;;;30.55;100.00
12801;BME280;6464;42.494;27.470;2022-09-06T13:04:57;102359.09;;;30.87;100.00
12801;BME280;6464;42.494;27.470;2022-09-06T13:07:27;102306.63;;;30.14;100.00
12801;BME280;6464;42.494;27.470;2022-09-06T13:09:56;102301.13;;;30.27;100.00
12801;BME280;6464;42.494;27.470;2022-09-06T13:12:25;102319.56;;;30.11;100.00
12801;BME280;6464;42.494;27.470;2022-09-06T13:14:57;102357.38;;;30.03;100.00
12801;BME280;6464;42.494;27.470;2022-09-06T13:17:28;102362.78;;;30.75;100.00
12801;BME280;6464;42.494;27.470;2022-09-06T13:19:56;102341.63;;;30.43;100.00
12801;BME280;6464;42.494;27.470;2022-09-06T13:22:38;102359.94;;;31.34;100.00
12801;BME280;6464;42.494;27.470;2022-09-06T13:25:12;102366.75;;;29.99;100.00
12801;BME280;6464;42.494;27.470;2022-09-06T13:27:42;102332.53;;;29.08;100.00
12801;BME280;6464;42.494;27.470;2022-09-06T13:30:31;102314.59;;;29.81;100.00
12801;BME280;6464;42.494;27.470;2022-09-06T13:32:59;102330.25;;;30.01;100.00
12801;BME280;6464;42.494;27.470;2022-09-06T13:35:28;102289.34;;;29.42;100.00
12801;BME280;6464;42.494;27.470;2022-09-06T13:41:05;102313.50;;;28.70;100.00
12801;BME280;6464;42.494;27.470;2022-09-06T13:43:41;102259.47;;;29.29;100.00
12801;BME280;6464;42.494;27.470;2022-09-06T13:46:10;102312.75;;;29.32;100.00
12801;BME280;6464;42.494;27.470;2022-09-06T13:48:37;102297.41;;;28.67;100.00
12801;BME280;6464;42.494;27.470;2022-09-06T13:51:06;102286.34;;;29.70;100.00
12801;BME280;6464;42.494;27.470;2022-09-06T13:53:34;102298.34;;;29.42;100.00
12801;BME280;6464;42.494;27.470;2022-09-06T13:56:01;102235.41;;;28.61;100.00
12801;BME280;6464;42.494;27.470;2022-09-06T13:58:29;102261.47;;;27.71;100.00
12801;BME280;6464;42.494;27.470;2022-09-06T14:00:57;102259.38;;;28.02;100.00
12801;BME280;6464;42.494;27.470;2022-09-06T14:03:27;102199.13;;;27.71;100.00
12801;BME280;6464;42.494;27.470;2022-09-06T14:05:55;102274.72;;;28.81;100.00
12801;BME280;6464;42.494;27.470;2022-09-06T14:08:22;102287.53;;;29.17;100.00
12801;BME280;6464;42.494;27.470;2022-09-06T14:10:49;102251.47;;;28.64;100.00
12801;BME280;6464;42.494;27.470;2022-09-06T14:13:17;102298.47;;;29.78;100.00
12801;BME280;6464;42.494;27.470;2022-09-06T14:15:45;102268.13;;;28.98;100.00
12801;BME280;6464;42.494;27.470;2022-09-06T14:18:13;102235.19;;;28.51;100.00
12801;BME280;6464;42.494;27.470;2022-09-06T14:20:50;102259.94;;;28.07;100.00
12801;BME280;6464;42.494;27.470;2022-09-06T14:23:17;102253.81;;;28.30;100.00
12801;BME280;6464;42.494;27.470;2022-09-06T14:25:44;102243.34;;;28.38;100.00
12801;BME280;6464;42.494;27.470;2022-09-06T14:28:11;102268.84;;;29.12;100.00
12801;BME280;6464;42.494;27.470;2022-09-06T14:30:38;102175.25;;;28.29;100.00
12801;BME280;6464;42.494;27.470;2022-09-06T14:33:05;102199.25;;;27.82;100.00
12801;BME280;6464;42.494;27.470;2022-09-06T14:35:32;102241.31;;;28.28;100.00
12801;BME280;6464;42.494;27.470;2022-09-06T14:38:01;102241.78;;;27.95;100.00
12801;BME280;6464;42.494;27.470;2022-09-06T14:40:28;102187.28;;;28.25;100.00
12801;BME280;6464;42.494;27.470;2022-09-06T14:42:55;102223.03;;;28.04;100.00
12801;BME280;6464;42.494;27.470;2022-09-06T14:45:22;102201.88;;;27.97;100.00
12801;BME280;6464;42.494;27.470;2022-09-06T14:47:50;102197.25;;;27.30;100.00
12801;BME280;6464;42.494;27.470;2022-09-06T14:50:17;102159.06;;;26.65;100.00
12801;BME280;6464;42.494;27.470;2022-09-06T14:52:44;102080.00;;;25.73;100.00
12801;BME280;6464;42.494;27.470;2022-09-06T14:55:13;102190.13;;;27.01;100.00
12801;BME280;6464;42.494;27.470;2022-09-06T14:57:40;102199.16;;;26.58;100.00
12801;BME280;6464;42.494;27.470;2022-09-06T15:00:08;102150.97;;;26.35;100.00
12801;BME280;6464;42.494;27.470;2022-09-06T15:02:36;102137.56;;;26.33;100.00
12801;BME280;6464;42.494;27.470;2022-09-06T15:05:04;102174.75;;;27.01;100.00
12801;BME280;6464;42.494;27.470;2022-09-06T15:07:31;102182.19;;;26.98;100.00
12801;BME280;6464;42.494;27.470;2022-09-06T15:09:58;102117.84;;;25.73;100.00
12801;BME280;6464;42.494;27.470;2022-09-06T15:12:26;102151.41;;;25.99;100.00
12801;BME280;6464;42.494;27.470;2022-09-06T15:14:53;102185.31;;;26.63;100.00
12801;BME280;6464;42.494;27.470;2022-09-06T15:17:20;102195.78;;;26.69;100.00
12801;BME280;6464;42.494;27.470;2022-09-06T15:19:49;102121.81;;;25.51;100.00
12801;BME280;6464;42.494;27.470;2022-09-06T15:22:16;102197.66;;;26.38;100.00
12801;BME280;6464;42.494;27.470;2022-09-06T15:24:43;102186.97;;;26.07;100.00
12801;BME280;6464;42.494;27.470;2022-09-06T15:27:10;102160.44;;;26.13;100.00
12801;BME280;6464;42.494;27.470;2022-09-06T15:29:52;102106.00;;;24.98;100.00
12801;BME280;6464;42.494;27.470;2022-09-06T15:41:33;102170.31;;;23.71;100.00
12801;BME280;6464;42.494;27.470;2022-09-06T15:50:19;102104.94;;;22.95;100.00
12801;BME280;6464;42.494;27.470;2022-09-06T15:52:46;102132.66;;;22.97;100.00
12801;BME280;6464;42.494;27.470;2022-09-06T15:55:13;102145.72;;;23.05;100.00
12801;BME280;6464;42.494;27.470;2022-09-06T15:57:57;102152.81;;;23.07;100.00
12801;BME280;6464;42.494;27.470;2022-09-06T16:00:24;102144.00;;;23.04;100.00
12801;BME280;6464;42.494;27.470;2022-09-06T16:02:51;102127.53;;;22.72;100.00
12801;BME280;6464;42.494;27.470;2022-09-06T16:05:20;102130.06;;;22.75;100.00
12801;BME280;6464;42.494;27.470;2022-09-06T16:07:47;102152.41;;;22.77;100.00
12801;BME280;6464;42.494;27.470;2022-09-06T16:10:14;102115.03;;;22.71;100.00
12801;BME280;6464;42.494;27.470;2022-09-06T16:12:41;102146.47;;;22.90;100.00
12801;BME280;6464;42.494;27.470;2022-09-06T16:15:09;102143.88;;;22.87;100.00
12801;BME280;6464;42.494;27.470;2022-09-06T16:17:36;102148.78;;;22.78;100.00
12801;BME280;6464;42.494;27.470;2022-09-06T16:20:03;102138.75;;;22.63;100.00
12801;BME280;6464;42.494;27.470;2022-09-06T16:22:32;102139.19;;;22.73;100.00
12801;BME280;6464;42.494;27.470;2022-09-06T16:24:59;102149.13;;;22.71;100.00
12801;BME280;6464;42.494;27.470;2022-09-06T16:27:26;102145.84;;;22.64;100.00
12801;BME280;6464;42.494;27.470;2022-09-06T16:29:53;102141.75;;;22.55;100.00
12801;BME280;6464;42.494;27.470;2022-09-06T16:32:20;102097.19;;;22.31;100.00
12801;BME280;6464;42.494;27.470;2022-09-06T16:34:47;102136.81;;;22.46;100.00
12801;BME280;6464;42.494;27.470;2022-09-06T16:37:14;102140.53;;;22.44;100.00
12801;BME280;6464;42.494;27.470;2022-09-06T16:39:42;102137.44;;;22.32;100.00
12801;BME280;6464;42.494;27.470;2022-09-06T16:42:09;102074.78;;;21.91;100.00
12801;BME280;6464;42.494;27.470;2022-09-06T16:44:37;102138.50;;;22.28;100.00
12801;BME280;6464;42.494;27.470;2022-09-06T16:47:04;102142.31;;;22.24;100.00
12801;BME280;6464;42.494;27.470;2022-09-06T16:49:32;102148.78;;;22.19;100.00
12801;BME280;6464;42.494;27.470;2022-09-06T16:51:59;102113.94;;;21.97;100.00
12801;BME280;6464;42.494;27.470;2022-09-06T16:54:26;102148.22;;;22.12;100.00
12801;BME280;6464;42.494;27.470;2022-09-06T16:56:54;102134.66;;;22.15;100.00
12801;BME280;6464;42.494;27.470;2022-09-06T16:59:22;102140.16;;;22.12;100.00
12801;BME280;6464;42.494;27.470;2022-09-06T17:01:49;102145.81;;;22.04;100.00
12801;BME280;6464;42.494;27.470;2022-09-06T17:04:16;102120.38;;;21.93;100.00
12801;BME280;6464;42.494;27.470;2022-09-06T17:06:43;102155.16;;;21.96;100.00
12801;BME280;6464;42.494;27.470;2022-09-06T17:09:12;102154.06;;;22.00;100.00
12801;BME280;6464;42.494;27.470;2022-09-06T17:11:39;102138.38;;;21.91;100.00
12801;BME280;6464;42.494;27.470;2022-09-06T17:14:07;102150.59;;;21.98;100.00
12801;BME280;6464;42.494;27.470;2022-09-06T17:16:34;102074.16;;;21.44;100.00
12801;BME280;6464;42.494;27.470;2022-09-06T17:19:18;102047.06;;;21.28;100.00
12801;BME280;6464;42.494;27.470;2022-09-06T17:21:45;102136.28;;;21.77;100.00
12801;BME280;6464;42.494;27.470;2022-09-06T17:24:12;102157.56;;;21.81;100.00
12801;BME280;6464;42.494;27.470;2022-09-06T17:26:40;102142.91;;;21.68;100.00
12801;BME280;6464;42.494;27.470;2022-09-06T17:29:08;102162.13;;;21.79;100.00
12801;BME280;6464;42.494;27.470;2022-09-06T17:31:36;102117.84;;;21.47;100.00
12801;BME280;6464;42.494;27.470;2022-09-06T17:34:04;102171.03;;;21.80;100.00
12801;BME280;6464;42.494;27.470;2022-09-06T17:36:32;102174.69;;;21.79;100.00
12801;BME280;6464;42.494;27.470;2022-09-06T17:39:01;102162.59;;;21.69;100.00
12801;BME280;6464;42.494;27.470;2022-09-06T17:41:32;102196.25;;;21.77;100.00
12801;BME280;6464;42.494;27.470;2022-09-06T17:44:01;102182.94;;;21.74;100.00
12801;BME280;6464;42.494;27.470;2022-09-06T17:46:30;102103.34;;;21.29;100.00
12801;BME280;6464;42.494;27.470;2022-09-06T17:48:57;102181.94;;;21.77;100.00
12801;BME280;6464;42.494;27.470;2022-09-06T17:51:24;102143.56;;;21.53;100.00
12801;BME280;6464;42.494;27.470;2022-09-06T17:53:52;102093.00;;;21.20;100.00
12801;BME280;6464;42.494;27.470;2022-09-06T17:56:19;102111.50;;;21.26;100.00
12801;BME280;6464;42.494;27.470;2022-09-06T17:58:57;102142.19;;;21.43;100.00
12801;BME280;6464;42.494;27.470;2022-09-06T18:01:26;102194.63;;;21.73;100.00
12801;BME280;6464;42.494;27.470;2022-09-06T18:03:56;102108.81;;;21.26;100.00
12801;BME280;6464;42.494;27.470;2022-09-06T18:06:25;102181.31;;;21.70;100.00
12801;BME280;6464;42.494;27.470;2022-09-06T18:08:54;102163.72;;;21.63;100.00
12801;BME280;6464;42.494;27.470;2022-09-06T18:11:23;102188.44;;;21.71;100.00
12801;BME280;6464;42.494;27.470;2022-09-06T18:13:54;102189.34;;;21.70;100.00
12801;BME280;6464;42.494;27.470;2022-09-06T18:16:21;102133.66;;;21.33;100.00
12801;BME280;6464;42.494;27.470;2022-09-06T18:18:49;102184.94;;;21.69;100.00
12801;BME280;6464;42.494;27.470;2022-09-06T18:21:19;102189.34;;;21.70;100.00
12801;BME280;6464;42.494;27.470;2022-09-06T18:23:46;102164.09;;;21.54;100.00
12801;BME280;6464;42.494;27.470;2022-09-06T18:26:14;102192.13;;;21.69;100.00
12801;BME280;6464;42.494;27.470;2022-09-06T18:28:41;102194.72;;;21.70;100.00
12801;BME280;6464;42.494;27.470;2022-09-06T18:31:10;102193.13;;;21.66;100.00
12801;BME280;6464;42.494;27.470;2022-09-06T18:33:38;102194.88;;;21.67;100.00
12801;BME280;6464;42.494;27.470;2022-09-06T18:36:07;102198.34;;;21.69;100.00
12801;BME280;6464;42.494;27.470;2022-09-06T18:38:36;102196.72;;;21.65;100.00
12801;BME280;6464;42.494;27.470;2022-09-06T18:41:05;102192.50;;;21.60;100.00
12801;BME280;6464;42.494;27.470;2022-09-06T18:43:34;102170.59;;;21.48;100.00
12801;BME280;6464;42.494;27.470;2022-09-06T18:46:03;102189.13;;;21.54;100.00
12801;BME280;6464;42.494;27.470;2022-09-06T18:48:31;102192.56;;;21.58;100.00
12801;BME280;6464;42.494;27.470;2022-09-06T18:51:02;102186.81;;;21.67;100.00
12801;BME280;6464;42.494;27.470;2022-09-06T18:53:29;102171.09;;;21.58;100.00
12801;BME280;6464;42.494;27.470;2022-09-06T18:56:01;102131.00;;;21.32;100.00
12801;BME280;6464;42.494;27.470;2022-09-06T18:58:28;102142.72;;;21.29;100.00
12801;BME280;6464;42.494;27.470;2022-09-06T19:01:02;102109.34;;;21.14;100.00
12801;BME280;6464;42.494;27.470;2022-09-06T19:03:30;102114.72;;;21.14;100.00
12801;BME280;6464;42.494;27.470;2022-09-06T19:06:01;102159.03;;;21.46;100.00
12801;BME280;6464;42.494;27.470;2022-09-06T19:08:28;102171.34;;;21.52;100.00
12801;BME280;6464;42.494;27.470;2022-09-06T19:10:59;102120.06;;;21.14;100.00
12801;BME280;6464;42.494;27.470;2022-09-06T19:13:28;102192.81;;;21.52;100.00
12801;BME280;6464;42.494;27.470;2022-09-06T19:15:55;102187.56;;;21.49;100.00
12801;BME280;6464;42.494;27.470;2022-09-06T19:18:23;102128.94;;;21.16;100.00
12801;BME280;6464;42.494;27.470;2022-09-06T19:20:55;102140.53;;;21.17;100.00
12801;BME280;6464;42.494;27.470;2022-09-06T19:23:23;102175.41;;;21.40;100.00
12801;BME280;6464;42.494;27.470;2022-09-06T19:25:55;102153.53;;;21.27;100.00
12801;BME280;6464;42.494;27.470;2022-09-06T19:28:25;102187.06;;;21.39;100.00
12801;BME280;6464;42.494;27.470;2022-09-06T19:34:26;102179.03;;;21.39;100.00
12801;BME280;6464;42.494;27.470;2022-09-06T19:37:17;102085.72;;;20.78;100.00
12801;BME280;6464;42.494;27.470;2022-09-06T19:41:28;102191.56;;;21.39;100.00
12801;BME280;6464;42.494;27.470;2022-09-06T19:43:06;102118.94;;;20.98;100.00
12801;BME280;6464;42.494;27.470;2022-09-06T19:45:47;102127.28;;;21.12;100.00
12801;BME280;6464;42.494;27.470;2022-09-06T19:48:29;102072.28;;;20.80;100.00
12801;BME280;6464;42.494;27.470;2022-09-06T19:51:33;102102.47;;;20.85;100.00
12801;BME280;6464;42.494;27.470;2022-09-06T19:54:19;102127.47;;;21.08;100.00
12801;BME280;6464;42.494;27.470;2022-09-06T19:58:14;101997.34;;;20.30;100.00
12801;BME280;6464;42.494;27.470;2022-09-06T20:06:04;102080.50;;;20.75;100.00
12801;BME280;6464;42.494;27.470;2022-09-06T20:08:39;102086.41;;;20.84;100.00